sensor_id;sensor_type;location;lat;lon;timestamp;P1;durP1;ratioP1;P2;durP2;ratioP2
7195;SDS011;3639;51.308;5.624;2022-07-10T00:02:14;1.60;;;1.50;;
7195;SDS011;3639;51.308;5.624;2022-07-10T00:04:39;1.83;;;1.47;;
7195;SDS011;3639;51.308;5.624;2022-07-10T00:07:05;1.60;;;1.30;;
7195;SDS011;3639;51.308;5.624;2022-07-10T00:09:31;1.87;;;1.30;;
7195;SDS011;3639;51.308;5.624;2022-07-10T00:11:57;2.40;;;1.80;;
7195;SDS011;3639;51.308;5.624;2022-07-10T00:14:22;1.90;;;1.70;;
7195;SDS011;3639;51.308;5.624;2022-07-10T00:16:48;2.80;;;1.70;;
7195;SDS011;3639;51.308;5.624;2022-07-10T00:19:14;11.03;;;2.43;;
7195;SDS011;3639;51.308;5.624;2022-07-10T00:21:39;3.07;;;2.20;;
7195;SDS011;3639;51.308;5.624;2022-07-10T00:24:05;2.37;;;2.07;;
7195;SDS011;3639;51.308;5.624;2022-07-10T00:26:31;2.20;;;2.00;;
7195;SDS011;3639;51.308;5.624;2022-07-10T00:28:56;2.43;;;2.10;;
7195;SDS011;3639;51.308;5.624;2022-07-10T00:31:22;1.73;;;1.63;;
7195;SDS011;3639;51.308;5.624;2022-07-10T00:33:48;1.87;;;1.70;;
7195;SDS011;3639;51.308;5.624;2022-07-10T00:36:13;2.00;;;1.90;;
7195;SDS011;3639;51.308;5.624;2022-07-10T00:38:39;1.90;;;1.80;;
7195;SDS011;3639;51.308;5.624;2022-07-10T00:41:05;3.53;;;2.10;;
7195;SDS011;3639;51.308;5.624;2022-07-10T00:43:53;4.57;;;2.10;;
7195;SDS011;3639;51.308;5.624;2022-07-10T00:46:24;2.10;;;1.90;;
7195;SDS011;3639;51.308;5.624;2022-07-10T00:48:52;2.17;;;1.97;;
7195;SDS011;3639;51.308;5.624;2022-07-10T00:51:18;2.87;;;2.17;;
7195;SDS011;3639;51.308;5.624;2022-07-10T00:53:47;1.73;;;1.60;;
7195;SDS011;3639;51.308;5.624;2022-07-10T00:56:16;2.17;;;1.97;;
7195;SDS011;3639;51.308;5.624;2022-07-10T00:58:44;1.73;;;1.63;;
7195;SDS011;3639;51.308;5.624;2022-07-10T01:01:10;2.03;;;1.83;;
7195;SDS011;3639;51.308;5.624;2022-07-10T01:03:36;4.20;;;1.80;;
7195;SDS011;3639;51.308;5.624;2022-07-10T01:06:02;2.30;;;2.03;;
7195;SDS011;3639;51.308;5.624;2022-07-10T01:08:28;6.97;;;2.00;;
7195;SDS011;3639;51.308;5.624;2022-07-10T01:10:54;2.83;;;1.93;;
7195;SDS011;3639;51.308;5.624;2022-07-10T01:13:22;2.27;;;1.80;;
7195;SDS011;3639;51.308;5.624;2022-07-10T01:15:47;1.90;;;1.80;;
7195;SDS011;3639;51.308;5.624;2022-07-10T01:18:13;4.70;;;1.87;;
7195;SDS011;3639;51.308;5.624;2022-07-10T01:20:39;2.13;;;1.93;;
7195;SDS011;3639;51.308;5.624;2022-07-10T01:23:05;4.63;;;1.80;;
7195;SDS011;3639;51.308;5.624;2022-07-10T01:25:31;3.50;;;2.33;;
7195;SDS011;3639;51.308;5.624;2022-07-10T01:27:57;2.27;;;2.07;;
7195;SDS011;3639;51.308;5.624;2022-07-10T01:30:24;2.10;;;1.90;;
7195;SDS011;3639;51.308;5.624;2022-07-10T01:32:50;1.67;;;1.57;;
7195;SDS011;3639;51.308;5.624;2022-07-10T01:35:17;2.20;;;2.00;;
7195;SDS011;3639;51.308;5.624;2022-07-10T01:37:43;2.27;;;1.60;;
7195;SDS011;3639;51.308;5.624;2022-07-10T01:40:09;2.90;;;1.80;;
7195;SDS011;3639;51.308;5.624;2022-07-10T01:42:36;2.37;;;1.80;;
7195;SDS011;3639;51.308;5.624;2022-07-10T01:45:03;2.80;;;2.17;;
7195;SDS011;3639;51.308;5.624;2022-07-10T01:47:30;2.53;;;1.90;;
7195;SDS011;3639;51.308;5.624;2022-07-10T01:49:56;2.23;;;1.53;;
7195;SDS011;3639;51.308;5.624;2022-07-10T01:52:21;1.47;;;1.23;;
7195;SDS011;3639;51.308;5.624;2022-07-10T01:54:47;1.90;;;1.70;;
7195;SDS011;3639;51.308;5.624;2022-07-10T01:57:14;3.73;;;1.97;;
7195;SDS011;3639;51.308;5.624;2022-07-10T01:59:40;1.63;;;1.53;;
7195;SDS011;3639;51.308;5.624;2022-07-10T02:02:06;2.03;;;1.83;;
7195;SDS011;3639;51.308;5.624;2022-07-10T02:04:32;2.00;;;1.83;;
7195;SDS011;3639;51.308;5.624;2022-07-10T02:07:10;3.77;;;1.60;;
7195;SDS011;3639;51.308;5.624;2022-07-10T02:09:37;2.03;;;1.83;;
7195;SDS011;3639;51.308;5.624;2022-07-10T02:12:09;1.93;;;1.73;;
7195;SDS011;3639;51.308;5.624;2022-07-10T02:14:37;3.00;;;1.73;;
7195;SDS011;3639;51.308;5.624;2022-07-10T02:17:03;1.80;;;1.70;;
7195;SDS011;3639;51.308;5.624;2022-07-10T02:19:29;1.67;;;1.50;;
7195;SDS011;3639;51.308;5.624;2022-07-10T02:21:55;2.03;;;1.63;;
7195;SDS011;3639;51.308;5.624;2022-07-10T02:24:21;1.87;;;1.77;;
7195;SDS011;3639;51.308;5.624;2022-07-10T02:26:47;2.20;;;2.00;;
7195;SDS011;3639;51.308;5.624;2022-07-10T02:29:14;3.93;;;2.00;;
7195;SDS011;3639;51.308;5.624;2022-07-10T02:31:40;1.60;;;1.50;;
7195;SDS011;3639;51.308;5.624;2022-07-10T02:34:10;1.53;;;1.40;;
7195;SDS011;3639;51.308;5.624;2022-07-10T02:36:37;2.00;;;1.90;;
7195;SDS011;3639;51.308;5.624;2022-07-10T02:39:03;2.00;;;1.80;;
7195;SDS011;3639;51.308;5.624;2022-07-10T02:41:30;2.10;;;1.70;;
7195;SDS011;3639;51.308;5.624;2022-07-10T02:43:55;2.10;;;1.90;;
7195;SDS011;3639;51.308;5.624;2022-07-10T02:46:21;1.77;;;1.60;;
7195;SDS011;3639;51.308;5.624;2022-07-10T02:48:47;1.80;;;1.53;;
7195;SDS011;3639;51.308;5.624;2022-07-10T02:51:12;2.03;;;1.73;;
7195;SDS011;3639;51.308;5.624;2022-07-10T02:53:38;2.03;;;1.70;;
7195;SDS011;3639;51.308;5.624;2022-07-10T02:56:06;3.30;;;1.83;;
7195;SDS011;3639;51.308;5.624;2022-07-10T02:58:33;3.00;;;1.80;;
7195;SDS011;3639;51.308;5.624;2022-07-10T03:00:59;1.87;;;1.77;;
7195;SDS011;3639;51.308;5.624;2022-07-10T03:03:25;2.97;;;2.10;;
7195;SDS011;3639;51.308;5.624;2022-07-10T03:05:50;2.73;;;2.07;;
7195;SDS011;3639;51.308;5.624;2022-07-10T03:08:16;2.10;;;1.30;;
7195;SDS011;3639;51.308;5.624;2022-07-10T03:10:42;1.97;;;1.77;;
7195;SDS011;3639;51.308;5.624;2022-07-10T03:13:07;3.93;;;2.00;;
7195;SDS011;3639;51.308;5.624;2022-07-10T03:15:33;4.07;;;1.70;;
7195;SDS011;3639;51.308;5.624;2022-07-10T03:17:59;1.80;;;1.70;;
7195;SDS011;3639;51.308;5.624;2022-07-10T03:20:25;1.77;;;1.63;;
7195;SDS011;3639;51.308;5.624;2022-07-10T03:22:50;1.60;;;1.50;;
7195;SDS011;3639;51.308;5.624;2022-07-10T03:25:16;3.63;;;2.00;;
7195;SDS011;3639;51.308;5.624;2022-07-10T03:27:45;4.20;;;1.90;;
7195;SDS011;3639;51.308;5.624;2022-07-10T03:30:10;4.90;;;1.80;;
7195;SDS011;3639;51.308;5.624;2022-07-10T03:32:36;2.03;;;1.93;;
7195;SDS011;3639;51.308;5.624;2022-07-10T03:35:02;1.93;;;1.83;;
7195;SDS011;3639;51.308;5.624;2022-07-10T03:37:31;2.97;;;2.00;;
7195;SDS011;3639;51.308;5.624;2022-07-10T03:39:56;2.47;;;1.80;;
7195;SDS011;3639;51.308;5.624;2022-07-10T03:42:22;1.87;;;1.63;;
7195;SDS011;3639;51.308;5.624;2022-07-10T03:44:48;2.50;;;1.90;;
7195;SDS011;3639;51.308;5.624;2022-07-10T03:47:16;2.23;;;1.93;;
7195;SDS011;3639;51.308;5.624;2022-07-10T03:49:42;2.23;;;1.90;;
7195;SDS011;3639;51.308;5.624;2022-07-10T03:52:10;2.67;;;2.30;;
7195;SDS011;3639;51.308;5.624;2022-07-10T03:54:41;1.73;;;1.63;;
7195;SDS011;3639;51.308;5.624;2022-07-10T03:57:07;2.33;;;2.13;;
7195;SDS011;3639;51.308;5.624;2022-07-10T03:59:51;2.80;;;2.20;;
7195;SDS011;3639;51.308;5.624;2022-07-10T04:02:19;2.33;;;2.13;;
7195;SDS011;3639;51.308;5.624;2022-07-10T04:04:44;2.07;;;1.87;;
7195;SDS011;3639;51.308;5.624;2022-07-10T04:07:10;1.73;;;1.63;;
7195;SDS011;3639;51.308;5.624;2022-07-10T04:09:37;3.93;;;2.07;;
7195;SDS011;3639;51.308;5.624;2022-07-10T04:12:03;2.80;;;2.13;;
7195;SDS011;3639;51.308;5.624;2022-07-10T04:14:29;2.10;;;1.90;;
7195;SDS011;3639;51.308;5.624;2022-07-10T04:16:54;2.80;;;1.80;;
7195;SDS011;3639;51.308;5.624;2022-07-10T04:19:41;2.03;;;1.83;;
7195;SDS011;3639;51.308;5.624;2022-07-10T04:22:07;2.57;;;2.10;;
7195;SDS011;3639;51.308;5.624;2022-07-10T04:24:33;6.37;;;2.23;;
7195;SDS011;3639;51.308;5.624;2022-07-10T04:26:58;2.10;;;1.90;;
7195;SDS011;3639;51.308;5.624;2022-07-10T04:29:24;2.77;;;2.00;;
7195;SDS011;3639;51.308;5.624;2022-07-10T04:31:50;2.33;;;2.13;;
7195;SDS011;3639;51.308;5.624;2022-07-10T04:34:15;4.17;;;1.97;;
7195;SDS011;3639;51.308;5.624;2022-07-10T04:36:41;2.27;;;2.00;;
7195;SDS011;3639;51.308;5.624;2022-07-10T04:39:08;1.70;;;1.60;;
7195;SDS011;3639;51.308;5.624;2022-07-10T04:41:34;3.63;;;2.33;;
7195;SDS011;3639;51.308;5.624;2022-07-10T04:44:00;1.90;;;1.70;;
7195;SDS011;3639;51.308;5.624;2022-07-10T04:46:26;2.63;;;2.13;;
7195;SDS011;3639;51.308;5.624;2022-07-10T04:48:52;2.23;;;1.97;;
7195;SDS011;3639;51.308;5.624;2022-07-10T04:51:17;2.50;;;1.97;;
7195;SDS011;3639;51.308;5.624;2022-07-10T04:53:43;1.77;;;1.67;;
7195;SDS011;3639;51.308;5.624;2022-07-10T04:56:11;2.00;;;1.90;;
7195;SDS011;3639;51.308;5.624;2022-07-10T04:58:37;1.50;;;1.40;;
7195;SDS011;3639;51.308;5.624;2022-07-10T05:01:03;2.67;;;2.10;;
7195;SDS011;3639;51.308;5.624;2022-07-10T05:03:34;1.90;;;1.63;;
7195;SDS011;3639;51.308;5.624;2022-07-10T05:06:00;3.23;;;2.10;;
7195;SDS011;3639;51.308;5.624;2022-07-10T05:08:25;2.87;;;2.00;;
7195;SDS011;3639;51.308;5.624;2022-07-10T05:10:51;1.87;;;1.77;;
7195;SDS011;3639;51.308;5.624;2022-07-10T05:13:23;2.93;;;2.13;;
7195;SDS011;3639;51.308;5.624;2022-07-10T05:15:51;1.90;;;1.80;;
7195;SDS011;3639;51.308;5.624;2022-07-10T05:18:19;2.17;;;1.90;;
7195;SDS011;3639;51.308;5.624;2022-07-10T05:20:45;2.30;;;2.07;;
7195;SDS011;3639;51.308;5.624;2022-07-10T05:23:13;2.30;;;1.90;;
7195;SDS011;3639;51.308;5.624;2022-07-10T05:25:39;2.10;;;2.00;;
7195;SDS011;3639;51.308;5.624;2022-07-10T05:28:05;2.27;;;2.07;;
7195;SDS011;3639;51.308;5.624;2022-07-10T05:30:31;1.93;;;1.80;;
7195;SDS011;3639;51.308;5.624;2022-07-10T05:33:00;2.07;;;1.73;;
7195;SDS011;3639;51.308;5.624;2022-07-10T05:35:44;3.73;;;2.23;;
7195;SDS011;3639;51.308;5.624;2022-07-10T05:38:13;2.13;;;1.93;;
7195;SDS011;3639;51.308;5.624;2022-07-10T05:40:40;3.20;;;2.50;;
7195;SDS011;3639;51.308;5.624;2022-07-10T05:43:08;1.87;;;1.67;;
7195;SDS011;3639;51.308;5.624;2022-07-10T05:45:37;1.70;;;1.60;;
7195;SDS011;3639;51.308;5.624;2022-07-10T05:48:07;1.53;;;1.43;;
7195;SDS011;3639;51.308;5.624;2022-07-10T05:50:32;4.10;;;2.07;;
7195;SDS011;3639;51.308;5.624;2022-07-10T05:53:00;2.33;;;1.83;;
7195;SDS011;3639;51.308;5.624;2022-07-10T05:55:28;2.10;;;1.80;;
7195;SDS011;3639;51.308;5.624;2022-07-10T05:57:54;7.30;;;1.90;;
7195;SDS011;3639;51.308;5.624;2022-07-10T06:00:24;2.87;;;1.70;;
7195;SDS011;3639;51.308;5.624;2022-07-10T06:02:49;1.50;;;1.40;;
7195;SDS011;3639;51.308;5.624;2022-07-10T06:05:18;1.57;;;1.47;;
7195;SDS011;3639;51.308;5.624;2022-07-10T06:07:46;2.17;;;1.90;;
7195;SDS011;3639;51.308;5.624;2022-07-10T06:10:12;1.40;;;1.30;;
7195;SDS011;3639;51.308;5.624;2022-07-10T06:12:38;1.67;;;1.40;;
7195;SDS011;3639;51.308;5.624;2022-07-10T06:15:07;2.70;;;1.50;;
7195;SDS011;3639;51.308;5.624;2022-07-10T06:18:05;4.03;;;1.90;;
7195;SDS011;3639;51.308;5.624;2022-07-10T06:20:31;2.20;;;1.40;;
7195;SDS011;3639;51.308;5.624;2022-07-10T06:23:00;3.60;;;1.70;;
7195;SDS011;3639;51.308;5.624;2022-07-10T06:25:46;2.27;;;1.30;;
7195;SDS011;3639;51.308;5.624;2022-07-10T06:28:14;3.63;;;1.40;;
7195;SDS011;3639;51.308;5.624;2022-07-10T06:30:40;1.30;;;1.20;;
7195;SDS011;3639;51.308;5.624;2022-07-10T06:33:06;2.90;;;1.50;;
7195;SDS011;3639;51.308;5.624;2022-07-10T06:35:47;2.13;;;1.70;;
7195;SDS011;3639;51.308;5.624;2022-07-10T06:38:13;1.50;;;1.33;;
7195;SDS011;3639;51.308;5.624;2022-07-10T06:40:56;4.80;;;1.20;;
7195;SDS011;3639;51.308;5.624;2022-07-10T06:43:24;3.57;;;1.30;;
7195;SDS011;3639;51.308;5.624;2022-07-10T06:45:56;1.80;;;1.20;;
7195;SDS011;3639;51.308;5.624;2022-07-10T06:49:19;3.23;;;1.40;;
7195;SDS011;3639;51.308;5.624;2022-07-10T06:51:57;1.97;;;1.10;;
7195;SDS011;3639;51.308;5.624;2022-07-10T06:54:43;1.57;;;1.07;;
7195;SDS011;3639;51.308;5.624;2022-07-10T06:57:09;1.37;;;1.10;;
7195;SDS011;3639;51.308;5.624;2022-07-10T06:59:38;2.50;;;1.00;;
7195;SDS011;3639;51.308;5.624;2022-07-10T07:02:10;1.30;;;1.20;;
7195;SDS011;3639;51.308;5.624;2022-07-10T07:04:39;1.47;;;1.07;;
7195;SDS011;3639;51.308;5.624;2022-07-10T07:07:09;0.97;;;0.87;;
7195;SDS011;3639;51.308;5.624;2022-07-10T07:09:35;3.53;;;1.17;;
7195;SDS011;3639;51.308;5.624;2022-07-10T07:12:09;1.10;;;1.00;;
7195;SDS011;3639;51.308;5.624;2022-07-10T07:14:46;1.50;;;1.00;;
7195;SDS011;3639;51.308;5.624;2022-07-10T07:17:40;1.47;;;0.97;;
7195;SDS011;3639;51.308;5.624;2022-07-10T07:20:32;1.40;;;1.30;;
7195;SDS011;3639;51.308;5.624;2022-07-10T07:23:16;0.87;;;0.87;;
7195;SDS011;3639;51.308;5.624;2022-07-10T07:25:42;0.77;;;0.77;;
7195;SDS011;3639;51.308;5.624;2022-07-10T07:28:15;1.33;;;1.07;;
7195;SDS011;3639;51.308;5.624;2022-07-10T07:30:49;2.60;;;1.13;;
7195;SDS011;3639;51.308;5.624;2022-07-10T07:33:27;1.97;;;1.10;;
7195;SDS011;3639;51.308;5.624;2022-07-10T07:35:56;0.93;;;0.87;;
7195;SDS011;3639;51.308;5.624;2022-07-10T07:38:21;1.87;;;1.00;;
7195;SDS011;3639;51.308;5.624;2022-07-10T07:40:47;1.20;;;1.00;;
7195;SDS011;3639;51.308;5.624;2022-07-10T07:43:13;2.53;;;1.10;;
7195;SDS011;3639;51.308;5.624;2022-07-10T07:45:38;2.43;;;0.90;;
7195;SDS011;3639;51.308;5.624;2022-07-10T07:48:04;2.07;;;1.17;;
7195;SDS011;3639;51.308;5.624;2022-07-10T07:50:32;2.07;;;1.10;;
7195;SDS011;3639;51.308;5.624;2022-07-10T07:53:01;0.80;;;0.80;;
7195;SDS011;3639;51.308;5.624;2022-07-10T07:55:28;3.13;;;1.23;;
7195;SDS011;3639;51.308;5.624;2022-07-10T07:57:55;1.83;;;1.10;;
7195;SDS011;3639;51.308;5.624;2022-07-10T08:00:25;1.13;;;1.03;;
7195;SDS011;3639;51.308;5.624;2022-07-10T08:02:52;1.17;;;1.07;;
7195;SDS011;3639;51.308;5.624;2022-07-10T08:05:19;2.30;;;1.00;;
7195;SDS011;3639;51.308;5.624;2022-07-10T08:07:46;3.07;;;1.07;;
7195;SDS011;3639;51.308;5.624;2022-07-10T08:10:15;1.43;;;1.03;;
7195;SDS011;3639;51.308;5.624;2022-07-10T08:12:42;1.37;;;1.10;;
7195;SDS011;3639;51.308;5.624;2022-07-10T08:15:12;5.33;;;1.13;;
7195;SDS011;3639;51.308;5.624;2022-07-10T08:17:39;2.23;;;1.40;;
7195;SDS011;3639;51.308;5.624;2022-07-10T08:20:05;1.80;;;1.03;;
7195;SDS011;3639;51.308;5.624;2022-07-10T08:22:35;1.10;;;0.97;;
7195;SDS011;3639;51.308;5.624;2022-07-10T08:25:00;2.00;;;1.07;;
7195;SDS011;3639;51.308;5.624;2022-07-10T08:27:29;2.00;;;1.27;;
7195;SDS011;3639;51.308;5.624;2022-07-10T08:29:55;2.30;;;1.07;;
7195;SDS011;3639;51.308;5.624;2022-07-10T08:32:23;1.43;;;1.10;;
7195;SDS011;3639;51.308;5.624;2022-07-10T08:34:51;3.50;;;1.27;;
7195;SDS011;3639;51.308;5.624;2022-07-10T08:37:19;1.57;;;1.10;;
7195;SDS011;3639;51.308;5.624;2022-07-10T08:39:46;0.87;;;0.80;;
7195;SDS011;3639;51.308;5.624;2022-07-10T08:42:11;1.43;;;1.20;;
7195;SDS011;3639;51.308;5.624;2022-07-10T08:44:38;3.97;;;0.90;;
7195;SDS011;3639;51.308;5.624;2022-07-10T08:47:04;1.33;;;1.03;;
7195;SDS011;3639;51.308;5.624;2022-07-10T08:49:30;1.83;;;1.03;;
7195;SDS011;3639;51.308;5.624;2022-07-10T08:51:57;1.53;;;1.07;;
7195;SDS011;3639;51.308;5.624;2022-07-10T08:54:31;1.17;;;1.00;;
7195;SDS011;3639;51.308;5.624;2022-07-10T08:56:58;3.57;;;1.30;;
7195;SDS011;3639;51.308;5.624;2022-07-10T08:59:27;1.63;;;1.10;;
7195;SDS011;3639;51.308;5.624;2022-07-10T09:02:01;2.30;;;1.50;;
7195;SDS011;3639;51.308;5.624;2022-07-10T09:04:27;3.23;;;1.37;;
7195;SDS011;3639;51.308;5.624;2022-07-10T09:06:56;2.40;;;1.00;;
7195;SDS011;3639;51.308;5.624;2022-07-10T09:09:21;1.20;;;1.00;;
7195;SDS011;3639;51.308;5.624;2022-07-10T09:11:49;2.07;;;1.10;;
7195;SDS011;3639;51.308;5.624;2022-07-10T09:14:24;2.00;;;1.30;;
7195;SDS011;3639;51.308;5.624;2022-07-10T09:16:52;2.07;;;1.33;;
7195;SDS011;3639;51.308;5.624;2022-07-10T09:19:25;2.80;;;1.20;;
7195;SDS011;3639;51.308;5.624;2022-07-10T09:22:13;3.43;;;1.60;;
7195;SDS011;3639;51.308;5.624;2022-07-10T09:24:41;1.27;;;1.10;;
7195;SDS011;3639;51.308;5.624;2022-07-10T09:27:11;1.60;;;1.17;;
7195;SDS011;3639;51.308;5.624;2022-07-10T09:29:46;3.77;;;1.20;;
7195;SDS011;3639;51.308;5.624;2022-07-10T09:32:20;1.90;;;1.77;;
7195;SDS011;3639;51.308;5.624;2022-07-10T09:34:47;2.23;;;1.50;;
7195;SDS011;3639;51.308;5.624;2022-07-10T09:37:29;2.10;;;1.30;;
7195;SDS011;3639;51.308;5.624;2022-07-10T09:42:25;3.07;;;1.60;;
7195;SDS011;3639;51.308;5.624;2022-07-10T09:44:58;3.83;;;1.60;;
7195;SDS011;3639;51.308;5.624;2022-07-10T09:47:40;3.20;;;1.50;;
7195;SDS011;3639;51.308;5.624;2022-07-10T09:52:53;1.80;;;1.50;;
7195;SDS011;3639;51.308;5.624;2022-07-10T09:55:21;3.97;;;1.73;;
7195;SDS011;3639;51.308;5.624;2022-07-10T09:57:53;3.77;;;1.40;;
7195;SDS011;3639;51.308;5.624;2022-07-10T10:00:22;1.90;;;1.50;;
7195;SDS011;3639;51.308;5.624;2022-07-10T10:02:52;2.20;;;1.60;;
7195;SDS011;3639;51.308;5.624;2022-07-10T10:05:39;2.40;;;1.37;;
7195;SDS011;3639;51.308;5.624;2022-07-10T10:10:39;2.53;;;1.50;;
7195;SDS011;3639;51.308;5.624;2022-07-10T10:13:09;2.00;;;1.50;;
7195;SDS011;3639;51.308;5.624;2022-07-10T10:15:37;2.67;;;1.30;;
7195;SDS011;3639;51.308;5.624;2022-07-10T10:18:04;1.67;;;1.33;;
7195;SDS011;3639;51.308;5.624;2022-07-10T10:20:32;1.30;;;1.20;;
7195;SDS011;3639;51.308;5.624;2022-07-10T10:23:03;2.50;;;1.20;;
7195;SDS011;3639;51.308;5.624;2022-07-10T10:25:31;2.10;;;1.30;;
7195;SDS011;3639;51.308;5.624;2022-07-10T10:27:59;2.33;;;1.80;;
7195;SDS011;3639;51.308;5.624;2022-07-10T10:30:26;2.77;;;1.30;;
7195;SDS011;3639;51.308;5.624;2022-07-10T10:32:53;1.33;;;1.23;;
7195;SDS011;3639;51.308;5.624;2022-07-10T10:35:41;1.57;;;1.40;;
7195;SDS011;3639;51.308;5.624;2022-07-10T10:38:12;2.27;;;1.20;;
7195;SDS011;3639;51.308;5.624;2022-07-10T10:40:39;2.43;;;1.30;;
7195;SDS011;3639;51.308;5.624;2022-07-10T10:43:20;1.17;;;1.00;;
7195;SDS011;3639;51.308;5.624;2022-07-10T10:45:48;1.50;;;1.30;;
7195;SDS011;3639;51.308;5.624;2022-07-10T10:48:15;1.70;;;1.20;;
7195;SDS011;3639;51.308;5.624;2022-07-10T10:50:49;2.67;;;1.57;;
7195;SDS011;3639;51.308;5.624;2022-07-10T10:58:42;1.10;;;1.00;;
7195;SDS011;3639;51.308;5.624;2022-07-10T11:06:38;2.40;;;1.10;;
7195;SDS011;3639;51.308;5.624;2022-07-10T11:14:31;2.83;;;1.30;;
7195;SDS011;3639;51.308;5.624;2022-07-10T11:17:03;1.50;;;1.07;;
7195;SDS011;3639;51.308;5.624;2022-07-10T11:19:30;2.00;;;1.20;;
7195;SDS011;3639;51.308;5.624;2022-07-10T11:27:59;1.77;;;1.20;;
7195;SDS011;3639;51.308;5.624;2022-07-10T11:30:42;2.37;;;1.20;;
7195;SDS011;3639;51.308;5.624;2022-07-10T11:33:11;1.20;;;1.03;;
7195;SDS011;3639;51.308;5.624;2022-07-10T11:35:40;0.90;;;0.90;;
7195;SDS011;3639;51.308;5.624;2022-07-10T11:38:09;2.27;;;1.30;;
7195;SDS011;3639;51.308;5.624;2022-07-10T11:40:37;1.40;;;1.30;;
7195;SDS011;3639;51.308;5.624;2022-07-10T11:43:03;2.40;;;1.53;;
7195;SDS011;3639;51.308;5.624;2022-07-10T11:45:32;1.83;;;1.30;;
7195;SDS011;3639;51.308;5.624;2022-07-10T11:48:01;3.50;;;1.20;;
7195;SDS011;3639;51.308;5.624;2022-07-10T11:50:34;1.43;;;0.83;;
7195;SDS011;3639;51.308;5.624;2022-07-10T11:53:01;2.17;;;1.00;;
7195;SDS011;3639;51.308;5.624;2022-07-10T11:55:28;1.20;;;0.87;;
7195;SDS011;3639;51.308;5.624;2022-07-10T11:57:55;2.30;;;1.17;;
7195;SDS011;3639;51.308;5.624;2022-07-10T12:00:21;1.30;;;1.07;;
7195;SDS011;3639;51.308;5.624;2022-07-10T12:02:48;1.50;;;1.07;;
7195;SDS011;3639;51.308;5.624;2022-07-10T12:08:03;3.00;;;1.60;;
7195;SDS011;3639;51.308;5.624;2022-07-10T12:10:30;1.40;;;1.00;;
7195;SDS011;3639;51.308;5.624;2022-07-10T12:13:03;3.13;;;1.30;;
7195;SDS011;3639;51.308;5.624;2022-07-10T12:15:41;1.30;;;1.03;;
7195;SDS011;3639;51.308;5.624;2022-07-10T12:18:18;1.67;;;1.20;;
7195;SDS011;3639;51.308;5.624;2022-07-10T12:20:45;1.33;;;1.10;;
7195;SDS011;3639;51.308;5.624;2022-07-10T12:23:13;1.33;;;1.00;;
7195;SDS011;3639;51.308;5.624;2022-07-10T12:25:44;1.20;;;0.97;;
7195;SDS011;3639;51.308;5.624;2022-07-10T12:28:11;2.20;;;1.20;;
7195;SDS011;3639;51.308;5.624;2022-07-10T12:30:38;3.05;;;1.40;;
7195;SDS011;3639;51.308;5.624;2022-07-10T12:33:09;1.15;;;0.93;;
7195;SDS011;3639;51.308;5.624;2022-07-10T12:36:05;2.00;;;1.08;;
7195;SDS011;3639;51.308;5.624;2022-07-10T12:38:30;2.47;;;1.10;;
7195;SDS011;3639;51.308;5.624;2022-07-10T12:41:06;1.00;;;0.90;;
7195;SDS011;3639;51.308;5.624;2022-07-10T12:43:36;2.50;;;1.37;;
7195;SDS011;3639;51.308;5.624;2022-07-10T12:46:18;2.07;;;1.03;;
7195;SDS011;3639;51.308;5.624;2022-07-10T12:54:31;1.00;;;0.90;;
7195;SDS011;3639;51.308;5.624;2022-07-10T12:57:01;1.40;;;0.90;;
7195;SDS011;3639;51.308;5.624;2022-07-10T12:59:29;1.40;;;1.10;;
7195;SDS011;3639;51.308;5.624;2022-07-10T13:01:59;2.37;;;0.97;;
7195;SDS011;3639;51.308;5.624;2022-07-10T13:04:40;1.93;;;1.00;;
7195;SDS011;3639;51.308;5.624;2022-07-10T13:07:16;1.03;;;0.93;;
7195;SDS011;3639;51.308;5.624;2022-07-10T13:09:42;1.40;;;1.20;;
7195;SDS011;3639;51.308;5.624;2022-07-10T13:12:09;2.83;;;1.20;;
7195;SDS011;3639;51.308;5.624;2022-07-10T13:14:35;1.90;;;1.00;;
7195;SDS011;3639;51.308;5.624;2022-07-10T13:17:01;1.53;;;0.87;;
7195;SDS011;3639;51.308;5.624;2022-07-10T13:19:27;1.60;;;0.80;;
7195;SDS011;3639;51.308;5.624;2022-07-10T13:21:53;1.30;;;0.70;;
7195;SDS011;3639;51.308;5.624;2022-07-10T13:24:18;1.63;;;0.80;;
7195;SDS011;3639;51.308;5.624;2022-07-10T13:26:44;0.90;;;0.90;;
7195;SDS011;3639;51.308;5.624;2022-07-10T13:29:12;2.30;;;0.90;;
7195;SDS011;3639;51.308;5.624;2022-07-10T13:31:38;1.27;;;1.10;;
7195;SDS011;3639;51.308;5.624;2022-07-10T13:34:03;2.28;;;1.70;;
7195;SDS011;3639;51.308;5.624;2022-07-10T13:36:31;1.23;;;1.13;;
7195;SDS011;3639;51.308;5.624;2022-07-10T13:38:58;1.45;;;1.10;;
7195;SDS011;3639;51.308;5.624;2022-07-10T13:41:27;0.80;;;0.80;;
7195;SDS011;3639;51.308;5.624;2022-07-10T13:43:53;0.90;;;0.82;;
7195;SDS011;3639;51.308;5.624;2022-07-10T13:46:18;1.33;;;0.98;;
7195;SDS011;3639;51.308;5.624;2022-07-10T13:48:44;0.80;;;0.75;;
7195;SDS011;3639;51.308;5.624;2022-07-10T13:51:11;0.75;;;0.70;;
7195;SDS011;3639;51.308;5.624;2022-07-10T13:53:40;0.73;;;0.73;;
7195;SDS011;3639;51.308;5.624;2022-07-10T13:56:06;1.42;;;0.80;;
7195;SDS011;3639;51.308;5.624;2022-07-10T13:58:34;1.05;;;0.80;;
7195;SDS011;3639;51.308;5.624;2022-07-10T14:01:05;0.57;;;0.57;;
7195;SDS011;3639;51.308;5.624;2022-07-10T14:03:31;0.82;;;0.70;;
7195;SDS011;3639;51.308;5.624;2022-07-10T14:05:57;0.70;;;0.70;;
7195;SDS011;3639;51.308;5.624;2022-07-10T14:08:23;0.68;;;0.68;;
7195;SDS011;3639;51.308;5.624;2022-07-10T14:10:49;0.90;;;0.80;;
7195;SDS011;3639;51.308;5.624;2022-07-10T14:13:15;0.77;;;0.70;;
7195;SDS011;3639;51.308;5.624;2022-07-10T14:15:41;0.98;;;0.88;;
7195;SDS011;3639;51.308;5.624;2022-07-10T14:18:09;0.73;;;0.73;;
7195;SDS011;3639;51.308;5.624;2022-07-10T14:20:35;0.70;;;0.70;;
7195;SDS011;3639;51.308;5.624;2022-07-10T14:23:19;1.20;;;0.75;;
7195;SDS011;3639;51.308;5.624;2022-07-10T14:25:48;0.90;;;0.73;;
7195;SDS011;3639;51.308;5.624;2022-07-10T14:28:14;0.68;;;0.60;;
7195;SDS011;3639;51.308;5.624;2022-07-10T14:30:40;2.53;;;1.15;;
7195;SDS011;3639;51.308;5.624;2022-07-10T14:33:07;1.27;;;1.05;;
7195;SDS011;3639;51.308;5.624;2022-07-10T14:35:32;0.70;;;0.70;;
7195;SDS011;3639;51.308;5.624;2022-07-10T14:38:01;0.93;;;0.80;;
7195;SDS011;3639;51.308;5.624;2022-07-10T14:40:27;1.05;;;0.90;;
7195;SDS011;3639;51.308;5.624;2022-07-10T14:42:53;0.98;;;0.75;;
7195;SDS011;3639;51.308;5.624;2022-07-10T14:45:22;0.73;;;0.60;;
7195;SDS011;3639;51.308;5.624;2022-07-10T14:47:49;0.90;;;0.70;;
7195;SDS011;3639;51.308;5.624;2022-07-10T14:50:15;0.70;;;0.70;;
7195;SDS011;3639;51.308;5.624;2022-07-10T14:52:41;0.80;;;0.80;;
7195;SDS011;3639;51.308;5.624;2022-07-10T14:55:16;0.90;;;0.80;;
7195;SDS011;3639;51.308;5.624;2022-07-10T14:57:43;0.90;;;0.70;;
7195;SDS011;3639;51.308;5.624;2022-07-10T15:00:11;1.73;;;0.82;;
7195;SDS011;3639;51.308;5.624;2022-07-10T15:02:39;1.02;;;0.70;;
7195;SDS011;3639;51.308;5.624;2022-07-10T15:05:05;0.77;;;0.75;;
7195;SDS011;3639;51.308;5.624;2022-07-10T15:07:31;2.42;;;0.80;;
7195;SDS011;3639;51.308;5.624;2022-07-10T15:09:57;0.85;;;0.77;;
7195;SDS011;3639;51.308;5.624;2022-07-10T15:12:23;1.05;;;0.98;;
7195;SDS011;3639;51.308;5.624;2022-07-10T15:14:48;1.05;;;0.95;;
7195;SDS011;3639;51.308;5.624;2022-07-10T15:17:14;0.70;;;0.70;;
7195;SDS011;3639;51.308;5.624;2022-07-10T15:19:40;1.10;;;0.90;;
7195;SDS011;3639;51.308;5.624;2022-07-10T15:22:05;2.55;;;0.85;;
7195;SDS011;3639;51.308;5.624;2022-07-10T15:24:31;0.90;;;0.90;;
7195;SDS011;3639;51.308;5.624;2022-07-10T15:26:57;2.45;;;1.20;;
7195;SDS011;3639;51.308;5.624;2022-07-10T15:29:27;4.85;;;2.85;;
7195;SDS011;3639;51.308;5.624;2022-07-10T15:31:55;0.70;;;0.70;;
7195;SDS011;3639;51.308;5.624;2022-07-10T15:34:21;1.00;;;0.90;;
7195;SDS011;3639;51.308;5.624;2022-07-10T15:36:46;1.23;;;0.73;;
7195;SDS011;3639;51.308;5.624;2022-07-10T15:39:14;2.17;;;0.80;;
7195;SDS011;3639;51.308;5.624;2022-07-10T15:41:42;1.00;;;0.90;;
7195;SDS011;3639;51.308;5.624;2022-07-10T15:44:11;0.93;;;0.80;;
7195;SDS011;3639;51.308;5.624;2022-07-10T15:46:37;2.97;;;0.80;;
7195;SDS011;3639;51.308;5.624;2022-07-10T15:49:02;1.10;;;0.88;;
7195;SDS011;3639;51.308;5.624;2022-07-10T15:51:29;1.05;;;0.90;;
7195;SDS011;3639;51.308;5.624;2022-07-10T15:53:55;1.45;;;1.08;;
7195;SDS011;3639;51.308;5.624;2022-07-10T15:56:21;2.25;;;1.10;;
7195;SDS011;3639;51.308;5.624;2022-07-10T15:58:48;1.10;;;1.00;;
7195;SDS011;3639;51.308;5.624;2022-07-10T16:01:15;1.10;;;0.90;;
7195;SDS011;3639;51.308;5.624;2022-07-10T16:03:44;2.63;;;1.00;;